createdAt,value
2022-08-22T00:00:47.764Z,1004.25
2022-08-22T00:01:47.747Z,1004.27
2022-08-22T00:02:47.737Z,1004.27
2022-08-22T00:03:47.756Z,1004.32
2022-08-22T00:04:47.714Z,1004.24
2022-08-22T00:05:47.701Z,1004.3
2022-08-22T00:06:47.686Z,1004.25
2022-08-22T00:07:47.708Z,1004.25
2022-08-22T00:08:47.666Z,1004.23
2022-08-22T00:09:47.714Z,1004.25
2022-08-22T00:10:47.645Z,1004.29
2022-08-22T00:11:47.648Z,1004.24
2022-08-22T00:12:47.637Z,1004.29
2022-08-22T00:13:47.626Z,1004.28
2022-08-22T00:14:47.610Z,1004.26
2022-08-22T00:15:47.642Z,1004.32
2022-08-22T00:16:47.597Z,1004.33
2022-08-22T00:17:47.570Z,1004.32
2022-08-22T00:18:47.579Z,1004.31
2022-08-22T00:19:47.549Z,1004.29
2022-08-22T00:20:47.539Z,1004.29
2022-08-22T00:21:47.527Z,1004.29
2022-08-22T00:22:47.512Z,1004.33
2022-08-22T00:23:47.514Z,1004.29
2022-08-22T00:24:47.517Z,1004.25
2022-08-22T00:25:47.503Z,1004.26
2022-08-22T00:26:47.479Z,1004.22
2022-08-22T00:27:47.457Z,1004.28
2022-08-22T00:28:47.457Z,1004.27
2022-08-22T00:29:47.449Z,1004.3
2022-08-22T00:30:47.429Z,1004.29
2022-08-22T00:31:47.426Z,1004.32
2022-08-22T00:32:47.402Z,1004.32
2022-08-22T00:33:47.392Z,1004.32
2022-08-22T00:34:47.392Z,1004.38
2022-08-22T00:35:47.377Z,1004.38
2022-08-22T00:36:47.399Z,1004.33
2022-08-22T00:37:47.349Z,1004.37
2022-08-22T00:38:47.350Z,1004.37
2022-08-22T00:39:47.332Z,1004.37
2022-08-22T00:40:47.335Z,1004.36
2022-08-22T00:41:47.320Z,1004.39
2022-08-22T00:42:47.298Z,1004.34
2022-08-22T00:43:47.290Z,1004.35
2022-08-22T00:44:47.292Z,1004.34
2022-08-22T00:45:47.271Z,1004.42
2022-08-22T00:46:47.262Z,1004.35
2022-08-22T00:47:47.248Z,1004.35
2022-08-22T00:48:47.242Z,1004.35
2022-08-22T00:49:47.227Z,1004.35
2022-08-22T00:50:47.212Z,1004.35
2022-08-22T00:51:47.202Z,1004.36
2022-08-22T00:52:47.217Z,1004.35
2022-08-22T00:53:47.187Z,1004.36
2022-08-22T00:54:47.167Z,1004.33
2022-08-22T00:55:47.196Z,1004.35
2022-08-22T00:56:47.158Z,1004.32
2022-08-22T00:57:47.138Z,1004.36
2022-08-22T00:58:47.135Z,1004.37
2022-08-22T00:59:47.126Z,1004.33
2022-08-22T01:00:47.107Z,1004.35
2022-08-22T01:01:47.093Z,1004.34
2022-08-22T01:02:47.087Z,1004.37
2022-08-22T01:03:47.102Z,1004.54
2022-08-22T01:04:47.084Z,1004.41
2022-08-22T01:05:47.060Z,1004.45
2022-08-22T01:06:47.047Z,1004.42
2022-08-22T01:07:47.031Z,1004.4
2022-08-22T01:08:47.025Z,1004.48
2022-08-22T01:09:47.009Z,1004.37
2022-08-22T01:10:46.997Z,1004.45
2022-08-22T01:11:46.988Z,1004.41
2022-08-22T01:12:46.996Z,1004.42
2022-08-22T01:13:46.981Z,1004.46
2022-08-22T01:14:46.972Z,1004.38
2022-08-22T01:15:46.955Z,1004.44
2022-08-22T01:16:46.966Z,1004.36
2022-08-22T01:17:46.926Z,1004.4
2022-08-22T01:18:46.913Z,1004.41
2022-08-22T01:19:46.905Z,1004.34
2022-08-22T01:20:46.906Z,1004.46
2022-08-22T01:21:46.910Z,1004.42
2022-08-22T01:22:46.867Z,1004.36
2022-08-22T01:23:46.863Z,1004.42
2022-08-22T01:24:46.858Z,1004.38
2022-08-22T01:25:46.854Z,1004.42
2022-08-22T01:26:46.863Z,1004.42
2022-08-22T01:27:46.837Z,1004.38
2022-08-22T01:28:46.830Z,1004.36
2022-08-22T01:29:46.795Z,1004.41
2022-08-22T01:30:46.786Z,1004.38
2022-08-22T01:31:46.775Z,1004.42
2022-08-22T01:32:46.785Z,1004.39
2022-08-22T01:33:46.754Z,1004.39
2022-08-22T01:34:46.745Z,1004.45
2022-08-22T01:35:46.735Z,1004.42
2022-08-22T01:36:46.717Z,1004.4
2022-08-22T01:37:46.710Z,1004.47
2022-08-22T01:38:46.718Z,1004.42
2022-08-22T01:39:46.694Z,1004.42
2022-08-22T01:40:46.684Z,1004.43
2022-08-22T01:41:46.675Z,1004.42
2022-08-22T01:42:46.663Z,1004.4
2022-08-22T01:43:46.656Z,1004.44
2022-08-22T01:44:46.664Z,1004.39
2022-08-22T01:45:46.637Z,1004.38
2022-08-22T01:46:46.619Z,1004.39
2022-08-22T01:47:46.604Z,1004.39
2022-08-22T01:48:46.594Z,1004.37
2022-08-22T01:49:46.596Z,1004.37
2022-08-22T01:50:46.593Z,1004.29
2022-08-22T01:51:46.575Z,1004.34
2022-08-22T01:52:46.547Z,1004.35
2022-08-22T01:53:46.545Z,1004.36
2022-08-22T01:54:46.536Z,1004.34
2022-08-22T01:55:46.537Z,1004.4
2022-08-22T01:56:46.522Z,1004.39
2022-08-22T01:57:46.495Z,1004.38
2022-08-22T01:58:46.490Z,1004.42
2022-08-22T01:59:46.493Z,1004.36
2022-08-22T02:00:46.467Z,1004.39
2022-08-22T02:01:46.456Z,1004.37
2022-08-22T02:02:46.449Z,1004.44
2022-08-22T02:03:46.433Z,1004.38
2022-08-22T02:04:46.425Z,1004.35
2022-08-22T02:05:46.412Z,1004.34
2022-08-22T02:06:46.402Z,1004.34
2022-08-22T02:07:46.393Z,1004.38
2022-08-22T02:08:46.379Z,1004.34
2022-08-22T02:09:46.367Z,1004.4
2022-08-22T02:10:46.366Z,1004.32
2022-08-22T02:11:46.349Z,1004.28
2022-08-22T02:12:46.356Z,1004.34
2022-08-22T02:13:46.328Z,1004.33
2022-08-22T02:14:46.328Z,1004.3
2022-08-22T02:15:46.310Z,1004.3
2022-08-22T02:16:46.310Z,1004.25
2022-08-22T02:17:46.285Z,1004.29
2022-08-22T02:18:46.293Z,1004.25
2022-08-22T02:19:46.272Z,1004.28
2022-08-22T02:20:46.251Z,1004.3
2022-08-22T02:21:46.238Z,1004.27
2022-08-22T02:22:46.227Z,1004.3
2022-08-22T02:23:46.231Z,1004.4
2022-08-22T02:24:46.216Z,1004.46
2022-08-22T02:25:46.198Z,1004.42
2022-08-22T02:26:46.189Z,1004.41
2022-08-22T02:27:46.171Z,1004.45
2022-08-22T02:28:46.164Z,1004.38
2022-08-22T02:29:46.164Z,1004.42
2022-08-22T02:30:46.155Z,1004.4
2022-08-22T02:31:46.144Z,1004.42
2022-08-22T02:32:46.114Z,1004.34
2022-08-22T02:33:46.107Z,1004.37
2022-08-22T02:34:46.095Z,1004.38
2022-08-22T02:35:46.089Z,1004.34
2022-08-22T02:36:46.072Z,1004.38
2022-08-22T02:37:46.058Z,1004.38
2022-08-22T02:38:46.053Z,1004.36
2022-08-22T02:39:46.043Z,1004.36
2022-08-22T02:40:46.044Z,1004.35
2022-08-22T02:41:46.017Z,1004.36
2022-08-22T02:42:46.010Z,1004.36
2022-08-22T02:43:46.008Z,1004.37
2022-08-22T02:44:45.988Z,1004.41
2022-08-22T02:45:45.985Z,1004.35
2022-08-22T02:46:45.966Z,1004.34
2022-08-22T02:47:45.948Z,1004.37
2022-08-22T02:48:45.949Z,1004.35
2022-08-22T02:49:45.936Z,1004.38
2022-08-22T02:50:45.933Z,1004.37
2022-08-22T02:51:45.914Z,1004.31
2022-08-22T02:52:45.899Z,1004.35
2022-08-22T02:53:45.905Z,1004.34
2022-08-22T02:54:45.878Z,1004.35
2022-08-22T02:55:45.879Z,1004.38
2022-08-22T02:56:45.856Z,1004.32
2022-08-22T02:57:45.851Z,1004.31
2022-08-22T02:58:45.827Z,1004.37
2022-08-22T02:59:45.825Z,1004.37
2022-08-22T03:00:45.818Z,1004.31
2022-08-22T03:01:45.814Z,1004.33
2022-08-22T03:02:45.804Z,1004.34
2022-08-22T03:03:45.800Z,1004.3
2022-08-22T03:04:45.763Z,1004.29
2022-08-22T03:05:45.754Z,1004.26
2022-08-22T03:06:45.755Z,1004.25
2022-08-22T03:07:45.740Z,1004.22
2022-08-22T03:08:45.720Z,1004.16
2022-08-22T03:09:45.710Z,1004.23
2022-08-22T03:10:45.703Z,1004.2
2022-08-22T03:11:45.691Z,1004.14
2022-08-22T03:12:45.692Z,1004.17
2022-08-22T03:13:45.677Z,1004.2
2022-08-22T03:14:45.688Z,1004.15
2022-08-22T03:15:45.636Z,1004.22
2022-08-22T03:16:45.623Z,1004.19
2022-08-22T03:17:45.619Z,1004.16
2022-08-22T03:18:45.610Z,1004.14
2022-08-22T03:19:45.593Z,1004.19
2022-08-22T03:20:45.582Z,1004.18
2022-08-22T03:21:45.580Z,1004.23
2022-08-22T03:22:45.564Z,1004.25
2022-08-22T03:23:45.551Z,1004.19
2022-08-22T03:24:45.592Z,1004.17
2022-08-22T03:25:45.528Z,1004.22
2022-08-22T03:26:45.521Z,1004.18
2022-08-22T03:27:45.507Z,1004.21
2022-08-22T03:28:45.498Z,1004.15
2022-08-22T03:29:45.489Z,1004.22
2022-08-22T03:30:45.466Z,1004.17
2022-08-22T03:31:45.464Z,1004.22
2022-08-22T03:32:45.446Z,1004.23
2022-08-22T03:33:45.449Z,1004.29
2022-08-22T03:34:45.429Z,1004.24
2022-08-22T03:35:45.429Z,1004.26
2022-08-22T03:36:45.405Z,1004.27
2022-08-22T03:37:45.411Z,1004.28
2022-08-22T03:38:45.380Z,1004.31
2022-08-22T03:39:45.372Z,1004.25
2022-08-22T03:40:45.359Z,1004.24
2022-08-22T03:41:45.368Z,1004.26
2022-08-22T03:42:45.340Z,1004.24
2022-08-22T03:43:45.337Z,1004.24
2022-08-22T03:44:45.323Z,1004.23
2022-08-22T03:45:45.310Z,1004.27
2022-08-22T03:46:45.311Z,1004.24
2022-08-22T03:47:45.287Z,1004.26
2022-08-22T03:48:45.273Z,1004.25
2022-08-22T03:49:45.279Z,1004.23
2022-08-22T03:50:45.267Z,1004.31
2022-08-22T03:51:45.247Z,1004.26
2022-08-22T03:52:45.231Z,1004.31
2022-08-22T03:53:45.217Z,1004.33
2022-08-22T03:54:45.206Z,1004.36
2022-08-22T03:55:45.200Z,1004.36
2022-08-22T03:56:45.185Z,1004.37
2022-08-22T03:57:45.175Z,1004.34
2022-08-22T03:58:45.159Z,1004.38
2022-08-22T03:59:45.150Z,1004.29
2022-08-22T04:00:45.147Z,1004.27
2022-08-22T04:01:45.129Z,1004.28
2022-08-22T04:02:45.117Z,1004.27
2022-08-22T04:03:45.115Z,1004.28
2022-08-22T04:04:45.101Z,1004.26
2022-08-22T04:05:45.084Z,1004.25
2022-08-22T04:06:45.076Z,1004.28
2022-08-22T04:07:45.056Z,1004.25
2022-08-22T04:08:45.053Z,1004.33
2022-08-22T04:09:45.045Z,1004.31
2022-08-22T04:10:45.026Z,1004.32
2022-08-22T04:11:45.033Z,1004.32
2022-08-22T04:12:45.007Z,1004.37
2022-08-22T04:13:44.996Z,1004.36
2022-08-22T04:14:44.987Z,1004.33
2022-08-22T04:15:44.989Z,1004.39
2022-08-22T04:16:44.966Z,1004.39
2022-08-22T04:17:44.954Z,1004.38
2022-08-22T04:18:44.940Z,1004.35
2022-08-22T04:19:44.928Z,1004.39
2022-08-22T04:20:44.941Z,1004.38
2022-08-22T04:21:44.934Z,1004.39
2022-08-22T04:22:44.907Z,1004.44
2022-08-22T04:23:44.887Z,1004.4
2022-08-22T04:24:44.892Z,1004.41
2022-08-22T04:25:44.857Z,1004.45
2022-08-22T04:26:44.861Z,1004.46
2022-08-22T04:27:44.845Z,1004.44
2022-08-22T04:28:44.828Z,1004.47
2022-08-22T04:29:44.812Z,1004.42
2022-08-22T04:30:44.804Z,1004.42
2022-08-22T04:31:44.796Z,1004.52
2022-08-22T04:32:44.804Z,1004.43
2022-08-22T04:33:44.772Z,1004.45
2022-08-22T04:34:44.770Z,1004.44
2022-08-22T04:35:44.753Z,1004.46
2022-08-22T04:36:44.736Z,1004.51
2022-08-22T04:37:44.724Z,1004.51
2022-08-22T04:38:44.726Z,1004.52
2022-08-22T04:39:44.717Z,1004.56
2022-08-22T04:40:44.691Z,1004.51
2022-08-22T04:41:44.684Z,1004.54
2022-08-22T04:42:44.678Z,1004.56
2022-08-22T04:43:44.665Z,1004.56
2022-08-22T04:44:44.665Z,1004.52
2022-08-22T04:45:44.636Z,1004.54
2022-08-22T04:46:44.642Z,1004.57
2022-08-22T04:47:44.631Z,1004.5
2022-08-22T04:48:44.606Z,1004.52
2022-08-22T04:49:44.603Z,1004.49
2022-08-22T04:50:44.583Z,1004.49
2022-08-22T04:51:44.581Z,1004.52
2022-08-22T04:52:44.563Z,1004.5
2022-08-22T04:53:44.564Z,1004.52
2022-08-22T04:54:44.538Z,1004.51
2022-08-22T04:55:44.538Z,1004.52
2022-08-22T04:56:44.525Z,1004.54
2022-08-22T04:57:44.509Z,1004.51
2022-08-22T04:58:45.317Z,1004.52
2022-08-22T04:59:44.497Z,1004.55
2022-08-22T05:00:44.488Z,1004.52
2022-08-22T05:01:44.485Z,1004.56
2022-08-22T05:02:44.456Z,1004.56
2022-08-22T05:03:44.444Z,1004.52
2022-08-22T05:04:44.433Z,1004.53
2022-08-22T05:05:44.449Z,1004.6
2022-08-22T05:06:44.476Z,1004.54
2022-08-22T05:07:44.417Z,1004.54
2022-08-22T05:08:44.386Z,1004.62
2022-08-22T05:09:44.377Z,1004.58
2022-08-22T05:10:44.377Z,1004.57
2022-08-22T05:11:44.387Z,1004.53
2022-08-22T05:12:44.395Z,1004.6
2022-08-22T05:13:44.352Z,1004.56
2022-08-22T05:14:44.323Z,1004.53
2022-08-22T05:15:44.311Z,1004.53
2022-08-22T05:16:44.326Z,1004.45
2022-08-22T05:17:44.293Z,1004.47
2022-08-22T05:18:44.284Z,1004.5
2022-08-22T05:19:44.264Z,1004.5
2022-08-22T05:20:44.250Z,1004.57
2022-08-22T05:21:44.250Z,1004.53
2022-08-22T05:22:44.234Z,1004.6
2022-08-22T05:23:44.221Z,1004.52
2022-08-22T05:24:44.232Z,1004.56
2022-08-22T05:25:44.203Z,1004.53
2022-08-22T05:26:44.205Z,1004.58
2022-08-22T05:27:44.197Z,1004.53
2022-08-22T05:28:44.171Z,1004.55
2022-08-22T05:29:44.159Z,1004.56
2022-08-22T05:30:44.164Z,1004.54
2022-08-22T05:31:44.139Z,1004.59
2022-08-22T05:32:44.147Z,1004.61
2022-08-22T05:33:44.130Z,1004.56
2022-08-22T05:34:44.119Z,1004.56
2022-08-22T05:35:44.100Z,1004.58
2022-08-22T05:36:44.108Z,1004.56
2022-08-22T05:37:44.068Z,1004.51
2022-08-22T05:38:44.073Z,1004.53
2022-08-22T05:39:44.079Z,1004.57
2022-08-22T05:40:44.053Z,1004.5
2022-08-22T05:41:45.033Z,1004.47
2022-08-22T05:43:49.281Z,1004.45
2022-08-22T05:44:49.225Z,1004.49
2022-08-22T05:45:49.367Z,1004.48
2022-08-22T05:46:50.190Z,1004.48
2022-08-22T05:47:49.203Z,1004.52
2022-08-22T05:48:49.184Z,1004.53
2022-08-22T05:49:49.167Z,1004.52
2022-08-22T05:50:49.164Z,1004.56
2022-08-22T05:51:49.140Z,1004.51
2022-08-22T05:52:49.142Z,1004.59
2022-08-22T05:53:49.125Z,1004.59
2022-08-22T05:54:49.103Z,1004.53
2022-08-22T05:55:49.109Z,1004.57
2022-08-22T05:56:49.083Z,1004.59
2022-08-22T05:57:49.074Z,1004.57
2022-08-22T05:58:49.065Z,1004.62
2022-08-22T05:59:49.054Z,1004.56
2022-08-22T06:00:49.044Z,1004.59
2022-08-22T06:01:49.122Z,1004.58
2022-08-22T06:02:49.981Z,1004.6
2022-08-22T06:03:57.116Z,1004.56
2022-08-22T06:04:49.235Z,1004.58
2022-08-22T06:05:49.852Z,1004.58
2022-08-22T06:06:49.061Z,1004.57
2022-08-22T06:07:49.004Z,1004.58
2022-08-22T06:08:48.955Z,1004.62
2022-08-22T06:11:09.154Z,1004.59
2022-08-22T06:12:09.277Z,1004.59
2022-08-22T06:13:09.123Z,1004.59
2022-08-22T06:16:58.264Z,1004.63
2022-08-22T06:17:58.301Z,1004.65
2022-08-22T06:18:58.223Z,1004.65
2022-08-22T06:19:58.212Z,1004.71
2022-08-22T06:20:58.202Z,1004.67
2022-08-22T06:21:58.906Z,1004.71
2022-08-22T06:22:58.182Z,1004.74
2022-08-22T06:23:58.170Z,1004.65
2022-08-22T06:24:58.156Z,1004.67
2022-08-22T06:25:58.147Z,1004.71
2022-08-22T06:26:58.135Z,1004.68
2022-08-22T06:27:58.143Z,1004.69
2022-08-22T06:28:58.118Z,1004.69
2022-08-22T06:29:58.144Z,1004.69
2022-08-22T06:30:58.099Z,1004.7
2022-08-22T06:31:58.094Z,1004.68
2022-08-22T06:32:58.117Z,1004.74
2022-08-22T06:33:58.058Z,1004.74
2022-08-22T06:34:58.106Z,1004.72
2022-08-22T06:35:58.037Z,1004.7
2022-08-22T06:36:58.045Z,1004.73
2022-08-22T06:37:58.023Z,1004.71
2022-08-22T06:38:58.035Z,1004.72
2022-08-22T06:39:58.031Z,1004.75
2022-08-22T06:40:57.993Z,1004.75
2022-08-22T06:41:58.003Z,1004.72
2022-08-22T06:42:58.012Z,1004.73
2022-08-22T06:43:57.988Z,1004.78
2022-08-22T06:48:56.796Z,1004.75
2022-08-22T06:50:11.832Z,1004.79
2022-08-22T06:52:38.106Z,1004.8
2022-08-22T06:53:38.090Z,1004.82
2022-08-22T07:00:16.552Z,1004.77
2022-08-22T07:04:51.324Z,1004.79
2022-08-22T07:05:51.314Z,1004.84
2022-08-22T07:06:51.296Z,1004.81
2022-08-22T07:07:51.287Z,1004.74
2022-08-22T07:08:51.275Z,1004.86
2022-08-22T07:09:51.267Z,1004.79
2022-08-22T07:10:51.259Z,1004.8
2022-08-22T07:11:51.265Z,1004.82
2022-08-22T07:12:51.235Z,1004.87
2022-08-22T07:13:51.228Z,1004.78
2022-08-22T07:14:51.220Z,1004.8
2022-08-22T07:15:51.206Z,1004.75
2022-08-22T07:16:51.214Z,1004.75
2022-08-22T07:17:51.191Z,1004.73
2022-08-22T07:18:51.183Z,1004.79
2022-08-22T07:19:51.163Z,1004.81
2022-08-22T07:20:51.178Z,1004.85
2022-08-22T07:21:51.135Z,1004.83
2022-08-22T07:22:51.164Z,1004.84
2022-08-22T07:23:51.125Z,1004.86
2022-08-22T07:24:51.109Z,1004.92
2022-08-22T07:25:51.106Z,1004.86
2022-08-22T07:26:51.112Z,1004.84
2022-08-22T07:27:51.075Z,1004.85
2022-08-22T07:28:51.066Z,1004.85
2022-08-22T07:29:51.050Z,1004.84
2022-08-22T07:30:51.046Z,1004.87
2022-08-22T07:31:51.045Z,1004.91
2022-08-22T07:32:51.023Z,1004.9
2022-08-22T07:33:51.011Z,1004.82
2022-08-22T07:34:50.995Z,1004.81
2022-08-22T07:35:50.996Z,1004.85
2022-08-22T07:36:50.988Z,1004.86
2022-08-22T07:37:50.967Z,1004.84
2022-08-22T07:38:50.956Z,1004.88
2022-08-22T07:39:50.961Z,1004.88
2022-08-22T07:40:50.954Z,1004.88
2022-08-22T07:41:50.925Z,1004.93
2022-08-22T07:42:50.911Z,1004.84
2022-08-22T07:43:50.910Z,1004.82
2022-08-22T07:44:50.897Z,1004.83
2022-08-22T07:45:50.891Z,1004.8
2022-08-22T07:46:50.874Z,1004.86
2022-08-22T07:47:50.872Z,1004.87
2022-08-22T07:48:50.854Z,1004.81
2022-08-22T07:49:50.842Z,1004.87
2022-08-22T07:50:50.830Z,1004.85
2022-08-22T07:51:50.819Z,1004.89
2022-08-22T07:52:50.808Z,1004.91
2022-08-22T07:53:50.795Z,1004.9
2022-08-22T07:54:50.785Z,1004.86
2022-08-22T07:55:50.788Z,1004.88
2022-08-22T07:56:50.778Z,1004.85
2022-08-22T07:57:50.757Z,1004.9
2022-08-22T07:58:50.777Z,1004.91
2022-08-22T07:59:50.736Z,1004.94
2022-08-22T08:00:50.814Z,1004.87
2022-08-22T08:01:50.727Z,1004.91
2022-08-22T08:02:50.707Z,1004.93
2022-08-22T08:03:50.697Z,1004.88
2022-08-22T08:04:50.679Z,1004.9
2022-08-22T08:05:50.667Z,1004.85
2022-08-22T08:06:50.667Z,1004.9
2022-08-22T08:07:50.668Z,1004.93
2022-08-22T08:08:50.647Z,1004.9
2022-08-22T08:09:50.638Z,1004.89
2022-08-22T08:10:50.628Z,1004.92
2022-08-22T08:11:50.607Z,1004.91
2022-08-22T08:12:50.606Z,1004.86
2022-08-22T08:13:50.597Z,1004.81
2022-08-22T08:14:50.579Z,1004.86
2022-08-22T08:15:50.568Z,1004.84
2022-08-22T08:16:50.564Z,1004.92
2022-08-22T08:17:50.587Z,1004.88
2022-08-22T08:18:50.537Z,1004.9
2022-08-22T08:19:50.587Z,1004.87
2022-08-22T08:20:50.558Z,1004.83
2022-08-22T08:21:50.502Z,1004.85
2022-08-22T08:22:50.496Z,1004.95
2022-08-22T08:23:50.492Z,1004.82
2022-08-22T08:24:50.596Z,1004.86
2022-08-22T08:25:50.473Z,1004.9
2022-08-22T08:26:50.443Z,1004.87
2022-08-22T08:27:50.451Z,1004.95
2022-08-22T08:28:50.431Z,1004.88
2022-08-22T08:29:50.409Z,1004.92
2022-08-22T08:30:50.406Z,1004.86
2022-08-22T08:31:50.393Z,1004.91
2022-08-22T08:32:50.399Z,1004.91
2022-08-22T08:33:50.374Z,1004.86
2022-08-22T08:34:50.367Z,1004.87
2022-08-22T08:35:50.348Z,1004.93
2022-08-22T08:36:50.350Z,1004.87
2022-08-22T08:37:50.335Z,1004.85
2022-08-22T08:38:50.321Z,1004.86
2022-08-22T08:39:50.370Z,1004.85
2022-08-22T08:40:50.295Z,1004.85
2022-08-22T08:41:50.293Z,1004.78
2022-08-22T08:42:50.270Z,1004.79
2022-08-22T08:43:50.265Z,1004.71
2022-08-22T08:44:50.259Z,1004.8
2022-08-22T08:45:50.256Z,1004.82
2022-08-22T08:46:50.243Z,1004.7
2022-08-22T08:47:50.224Z,1004.75
2022-08-22T08:48:50.484Z,1004.75
2022-08-22T08:49:50.203Z,1004.73
2022-08-22T08:50:50.190Z,1004.73
2022-08-22T08:51:50.179Z,1004.71
2022-08-22T08:52:50.173Z,1004.7
2022-08-22T08:53:50.163Z,1004.68
2022-08-22T08:54:50.156Z,1004.69
2022-08-22T08:55:50.145Z,1004.7
2022-08-22T08:56:50.137Z,1004.76
2022-08-22T08:57:50.119Z,1004.72
2022-08-22T08:58:50.113Z,1004.69
2022-08-22T08:59:50.103Z,1004.7
2022-08-22T09:00:50.083Z,1004.69
2022-08-22T09:01:50.102Z,1004.76
2022-08-22T09:02:50.064Z,1004.66
2022-08-22T09:03:50.048Z,1004.64
2022-08-22T09:04:50.044Z,1004.7
2022-08-22T09:05:50.036Z,1004.62
2022-08-22T09:06:50.031Z,1004.62
2022-08-22T09:07:50.012Z,1004.65
2022-08-22T09:08:50.007Z,1004.61
2022-08-22T09:09:49.988Z,1004.6
2022-08-22T09:10:49.981Z,1004.56
2022-08-22T09:11:49.994Z,1004.61
2022-08-22T09:12:49.975Z,1004.57
2022-08-22T09:13:49.943Z,1004.59
2022-08-22T09:14:49.943Z,1004.6
2022-08-22T09:15:49.957Z,1004.55
2022-08-22T09:16:49.917Z,1004.55
2022-08-22T09:17:49.920Z,1004.62
2022-08-22T09:18:49.948Z,1004.58
2022-08-22T09:19:49.891Z,1004.59
2022-08-22T09:20:49.893Z,1004.63
2022-08-22T09:21:49.873Z,1004.54
2022-08-22T09:22:49.855Z,1004.52
2022-08-22T09:23:49.845Z,1004.55
2022-08-22T09:24:49.846Z,1004.5
2022-08-22T09:25:49.822Z,1004.48
2022-08-22T09:26:49.913Z,1004.57
2022-08-22T09:27:49.804Z,1004.5
2022-08-22T09:28:49.790Z,1004.46
2022-08-22T09:29:49.810Z,1004.55
2022-08-22T09:30:49.800Z,1004.53
2022-08-22T09:31:49.777Z,1004.47
2022-08-22T09:32:49.749Z,1004.52
2022-08-22T09:33:49.742Z,1004.47
2022-08-22T09:34:49.760Z,1004.43
2022-08-22T09:35:49.729Z,1004.39
2022-08-22T09:36:49.721Z,1004.32
2022-08-22T09:37:49.698Z,1004.33
2022-08-22T09:38:49.689Z,1004.29
2022-08-22T09:39:49.677Z,1004.37
2022-08-22T09:40:49.671Z,1004.36
2022-08-22T09:41:49.696Z,1004.32
2022-08-22T09:42:49.647Z,1004.29
2022-08-22T09:43:49.640Z,1004.35
2022-08-22T09:44:49.623Z,1004.3
2022-08-22T09:45:49.612Z,1004.26
2022-08-22T09:46:49.603Z,1004.26
2022-08-22T09:47:49.621Z,1004.24
2022-08-22T09:48:49.594Z,1004.26
2022-08-22T09:49:49.576Z,1004.19
2022-08-22T09:50:49.573Z,1004.17
2022-08-22T09:51:49.564Z,1004.2
2022-08-22T09:52:49.551Z,1004.24
2022-08-22T09:53:49.535Z,1004.3
2022-08-22T09:54:49.521Z,1004.27
2022-08-22T09:55:49.515Z,1004.24
2022-08-22T09:56:49.502Z,1004.26
2022-08-22T09:57:49.493Z,1004.21
2022-08-22T09:58:49.490Z,1004.25
2022-08-22T09:59:49.473Z,1004.22
2022-08-22T10:00:49.459Z,1004.21
2022-08-22T10:01:49.470Z,1004.22
2022-08-22T10:02:49.472Z,1004.28
2022-08-22T10:03:49.447Z,1004.24
2022-08-22T10:04:49.422Z,1004.21
2022-08-22T10:05:49.418Z,1004.27
2022-08-22T10:06:49.392Z,1004.29
2022-08-22T10:07:49.396Z,1004.29
2022-08-22T10:08:49.373Z,1004.27
2022-08-22T10:09:49.364Z,1004.25
2022-08-22T10:10:49.356Z,1004.21
2022-08-22T10:11:49.362Z,1004.19
2022-08-22T10:12:49.339Z,1004.17
2022-08-22T10:13:49.326Z,1004.12
2022-08-22T10:14:49.317Z,1004.11
2022-08-22T10:15:49.313Z,1004.13
2022-08-22T10:16:49.300Z,1004.1
2022-08-22T10:17:49.284Z,1004.15
2022-08-22T10:18:49.281Z,1004.15
2022-08-22T10:19:49.268Z,1004.13
2022-08-22T10:20:49.268Z,1004.09
2022-08-22T10:21:49.248Z,1004.1
2022-08-22T10:22:49.249Z,1004.07
2022-08-22T10:23:49.280Z,1004.08
2022-08-22T10:24:49.253Z,1004.05
2022-08-22T10:25:49.210Z,1004.08
2022-08-22T10:26:49.213Z,1004.04
2022-08-22T10:27:49.219Z,1004.05
2022-08-22T10:28:49.278Z,1004.09
2022-08-22T10:29:49.166Z,1004.07
2022-08-22T10:30:49.187Z,1004.04
2022-08-22T10:31:49.159Z,1004.09
2022-08-22T10:32:49.186Z,1004.04
2022-08-22T10:33:49.125Z,1003.95
2022-08-22T10:34:49.134Z,1003.94
2022-08-22T10:35:49.107Z,1003.89
2022-08-22T10:36:49.106Z,1003.82
2022-08-22T10:37:49.089Z,1003.85
2022-08-22T10:38:49.072Z,1003.93
2022-08-22T10:39:49.063Z,1003.91
2022-08-22T10:40:49.084Z,1003.86
2022-08-22T10:41:49.079Z,1003.88
2022-08-22T10:42:49.035Z,1003.84
2022-08-22T10:43:49.025Z,1003.91
2022-08-22T10:44:49.016Z,1003.85
2022-08-22T10:45:49.009Z,1003.91
2022-08-22T10:46:49.004Z,1003.9
2022-08-22T10:47:48.984Z,1003.85
2022-08-22T10:48:49.001Z,1003.87
2022-08-22T10:49:48.964Z,1003.89
2022-08-22T10:50:48.999Z,1003.86
2022-08-22T10:51:48.945Z,1003.94
2022-08-22T10:52:48.941Z,1003.97
2022-08-22T10:53:48.959Z,1004.04
2022-08-22T10:54:48.919Z,1004
2022-08-22T10:55:48.903Z,1004.03
2022-08-22T10:56:48.900Z,1004.05
2022-08-22T10:57:48.879Z,1003.98
2022-08-22T10:58:48.872Z,1004.08
2022-08-22T10:59:48.864Z,1004.01
2022-08-22T11:00:48.883Z,1004.02
2022-08-22T11:01:48.866Z,1004.06
2022-08-22T11:02:48.846Z,1003.99
2022-08-22T11:03:48.852Z,1004.08
2022-08-22T11:04:48.820Z,1004.04
2022-08-22T11:05:48.799Z,1004.07
2022-08-22T11:06:48.791Z,1004.09
2022-08-22T11:07:48.787Z,1004.04
2022-08-22T11:08:48.773Z,1004.07
2022-08-22T11:09:48.760Z,1004.08
2022-08-22T11:10:48.752Z,1004.09
2022-08-22T11:11:48.758Z,1004.02
2022-08-22T11:12:48.740Z,1004.04
2022-08-22T11:13:48.740Z,1003.98
2022-08-22T11:14:48.747Z,1004.05
2022-08-22T11:15:48.706Z,1003.95
2022-08-22T11:16:48.701Z,1003.98
2022-08-22T11:17:48.684Z,1003.98
2022-08-22T11:18:48.693Z,1004.01
2022-08-22T11:19:48.672Z,1004.01
2022-08-22T11:20:48.668Z,1004.06
2022-08-22T11:21:48.652Z,1004.08
2022-08-22T11:22:48.715Z,1004.04
2022-08-22T11:23:48.624Z,1003.96
2022-08-22T11:24:48.618Z,1004.01
2022-08-22T11:25:48.625Z,1003.97
2022-08-22T11:26:48.599Z,1003.99
2022-08-22T11:27:48.595Z,1004.03
2022-08-22T11:28:48.582Z,1004.01
2022-08-22T11:29:48.575Z,1003.99
2022-08-22T11:30:48.561Z,1003.92
2022-08-22T11:31:48.563Z,1003.94
2022-08-22T11:32:48.559Z,1003.97
2022-08-22T11:33:48.533Z,1003.96
2022-08-22T11:34:48.521Z,1003.95
2022-08-22T11:35:48.521Z,1003.94
2022-08-22T11:36:48.502Z,1003.94
2022-08-22T11:37:49.485Z,1003.89
2022-08-22T11:38:48.483Z,1004
2022-08-22T11:39:48.471Z,1003.96
2022-08-22T11:40:48.461Z,1003.97
2022-08-22T11:41:48.458Z,1003.94
2022-08-22T11:42:48.448Z,1003.94
2022-08-22T11:43:48.444Z,1003.91
2022-08-22T11:44:48.432Z,1003.95
2022-08-22T11:45:48.420Z,1003.94
2022-08-22T11:46:48.407Z,1003.91
2022-08-22T11:47:48.402Z,1004.01
2022-08-22T11:48:48.391Z,1003.88
2022-08-22T11:49:48.386Z,1003.95
2022-08-22T11:50:48.377Z,1003.86
2022-08-22T11:51:48.360Z,1003.88
2022-08-22T11:52:48.353Z,1003.9
2022-08-22T11:53:48.375Z,1003.86
2022-08-22T11:54:48.329Z,1003.82
2022-08-22T11:55:48.328Z,1003.82
2022-08-22T11:56:48.310Z,1003.93
2022-08-22T11:57:48.311Z,1003.88
2022-08-22T11:58:48.291Z,1003.84
2022-08-22T11:59:48.285Z,1003.91
2022-08-22T12:00:48.283Z,1003.82
2022-08-22T12:01:48.264Z,1003.86
2022-08-22T12:02:48.271Z,1003.87
2022-08-22T12:03:48.253Z,1003.85
2022-08-22T12:04:48.245Z,1003.74
2022-08-22T12:05:48.240Z,1003.8
2022-08-22T12:06:48.229Z,1003.8
2022-08-22T12:07:48.214Z,1003.78
2022-08-22T12:08:48.209Z,1003.84
2022-08-22T12:09:48.305Z,1003.84
2022-08-22T12:10:48.181Z,1003.8
2022-08-22T12:11:48.173Z,1003.79
2022-08-22T12:12:48.233Z,1003.75
2022-08-22T12:13:48.184Z,1003.74
2022-08-22T12:14:48.146Z,1003.77
2022-08-22T12:15:48.153Z,1003.76
2022-08-22T12:16:48.123Z,1003.7
2022-08-22T12:17:57.006Z,1003.67
2022-08-22T12:18:56.986Z,1003.73
2022-08-22T12:19:55.705Z,1003.53
2022-08-22T12:20:56.673Z,1003.64
2022-08-22T12:21:56.685Z,1003.51
2022-08-22T12:22:55.627Z,1003.44
2022-08-22T12:23:56.642Z,1003.41
2022-08-22T12:24:55.616Z,1003.42
2022-08-22T12:25:55.626Z,1003.41
2022-08-22T12:26:56.604Z,1003.41
2022-08-22T12:27:55.609Z,1003.38